Time;durP1;ratioP1;P1;durP2;ratioP2;P2;SDS_P1;SDS_P2;PMS_P1;PMS_P2;Temp;Humidity;BMP_temperature;BMP_pressure;BME280_temperature;BME280_humidity;BME280_pressure;Samples;Min_cycle;Max_cycle;Signal;HPM_P1;HPM_P2
2021/11/21 00:00:42;;;;;;;;;;;;;;;18.03;65.80;101265.72;5023173;28;1992;-42
2021/11/21 00:03:13;;;;;;;;;;;;;;;18.03;65.63;101271.09;5024088;28;1741;-43
2021/11/21 00:05:43;;;;;;;;;;;;;;;18.02;66.64;101264.00;5023325;28;1906;-43
2021/11/21 00:08:14;;;;;;;;;;;;;;;18.01;65.84;101268.50;5029468;28;1717;-42
2021/11/21 00:10:43;;;;;;;;;;;;;;;17.99;66.07;101266.94;5025513;28;1068;-43
2021/11/21 00:13:11;;;;;;;;;;;;;;;18.00;66.11;101257.91;5029018;28;1791;-42
2021/11/21 00:15:46;;;;;;;;;;;;;;;18.01;65.57;101255.13;5029881;28;1933;-42
2021/11/21 00:18:13;;;;;;;;;;;;;;;17.99;66.11;101259.75;5032246;28;1944;-42
2021/11/21 00:20:42;;;;;;;;;;;;;;;17.97;65.93;101248.31;5014635;28;1020;-42
2021/11/21 00:23:09;;;;;;;;;;;;;;;17.99;66.08;101248.19;5017428;28;1376;-42
2021/11/21 00:25:35;;;;;;;;;;;;;;;17.99;65.96;101265.09;5020671;28;1975;-43
2021/11/21 00:28:03;;;;;;;;;;;;;;;17.99;65.74;101258.91;5025621;28;1729;-42
2021/11/21 00:30:40;;;;;;;;;;;;;;;17.97;65.61;101259.00;5019391;28;1538;-42
2021/11/21 00:33:11;;;;;;;;;;;;;;;17.98;65.56;101254.50;5031266;28;1717;-42
2021/11/21 00:35:40;;;;;;;;;;;;;;;17.98;65.62;101273.25;5030517;28;1100;-42
2021/11/21 00:38:07;;;;;;;;;;;;;;;17.94;65.58;101256.56;5026008;28;1752;-42
2021/11/21 00:40:34;;;;;;;;;;;;;;;17.97;65.15;101260.84;5026834;28;1344;-42
2021/11/21 00:43:08;;;;;;;;;;;;;;;17.97;65.25;101250.13;5022791;28;1803;-43
2021/11/21 00:45:41;;;;;;;;;;;;;;;17.96;65.20;101251.94;5029734;28;1906;-42
2021/11/21 00:48:12;;;;;;;;;;;;;;;17.96;65.20;101251.09;5023170;28;2032;-42
2021/11/21 00:50:38;;;;;;;;;;;;;;;17.94;65.50;101256.56;5024529;28;1068;-43
2021/11/21 00:53:08;;;;;;;;;;;;;;;17.93;65.53;101254.03;5031783;28;1995;-42
2021/11/21 00:55:41;;;;;;;;;;;;;;;17.92;65.58;101255.81;5023419;28;1429;-42
2021/11/21 00:58:13;;;;;;;;;;;;;;;17.91;65.88;101258.63;5023938;28;1468;-42
2021/11/21 01:01:02;;;;;;;;;;;;;;;17.88;65.25;101246.31;5030747;28;1749;-43
2021/11/21 01:03:46;;;;;;;;;;;;;;;17.89;65.74;101246.22;5016481;28;1786;-42
2021/11/21 01:06:12;;;;;;;;;;;;;;;17.90;65.39;101252.41;5019126;28;1980;-42
2021/11/21 01:08:39;;;;;;;;;;;;;;;17.88;65.09;101252.53;5029580;28;1796;-42
2021/11/21 01:11:06;;;;;;;;;;;;;;;17.87;65.26;101256.19;5029488;28;1775;-42
2021/11/21 01:13:34;;;;;;;;;;;;;;;17.87;65.28;101261.53;5023463;28;1755;-42
2021/11/21 01:16:04;;;;;;;;;;;;;;;17.87;65.33;101245.47;5024569;28;1939;-42
2021/11/21 01:18:37;;;;;;;;;;;;;;;17.85;65.43;101244.75;5029637;28;1755;-42
2021/11/21 01:21:04;;;;;;;;;;;;;;;17.84;65.51;101245.69;5031876;28;1377;-42
2021/11/21 01:23:30;;;;;;;;;;;;;;;17.82;65.60;101244.94;5029373;28;1775;-42
2021/11/21 01:25:57;;;;;;;;;;;;;;;17.89;65.79;101248.88;5020510;28;1975;-42
2021/11/21 01:28:25;;;;;;;;;;;;;;;17.87;64.96;101241.97;5017344;28;1655;-42
2021/11/21 01:30:54;;;;;;;;;;;;;;;17.86;64.89;101241.09;5032724;28;1775;-42
2021/11/21 01:33:23;;;;;;;;;;;;;;;17.83;65.14;101225.28;5023589;28;1809;-42
2021/11/21 01:35:55;;;;;;;;;;;;;;;17.83;65.22;101227.97;5030228;28;1653;-42
2021/11/21 01:38:25;;;;;;;;;;;;;;;17.84;64.95;101229.66;5029526;28;1860;-42
2021/11/21 01:40:54;;;;;;;;;;;;;;;17.81;64.77;101229.88;5027324;28;1834;-42
2021/11/21 01:43:21;;;;;;;;;;;;;;;17.81;65.10;101221.00;5018820;28;1774;-42
2021/11/21 01:45:48;;;;;;;;;;;;;;;17.80;64.96;101211.25;5026785;28;1909;-42
2021/11/21 01:48:16;;;;;;;;;;;;;;;17.81;64.72;101208.47;5023476;28;1824;-42
2021/11/21 01:50:53;;;;;;;;;;;;;;;17.80;64.94;101204.06;5022264;28;1015;-42
2021/11/21 01:53:23;;;;;;;;;;;;;;;17.78;64.83;101189.97;5020787;28;1827;-42
2021/11/21 01:55:51;;;;;;;;;;;;;;;17.79;64.90;101201.53;5027669;28;1734;-42
2021/11/21 01:58:18;;;;;;;;;;;;;;;17.81;64.59;101224.50;5026724;28;1318;-43
2021/11/21 02:00:45;;;;;;;;;;;;;;;17.77;64.61;101209.66;5029119;28;1798;-42
2021/11/21 02:03:12;;;;;;;;;;;;;;;17.78;64.76;101206.00;5022482;28;1483;-42
2021/11/21 02:05:40;;;;;;;;;;;;;;;17.75;64.69;101210.75;5021060;28;1906;-42
2021/11/21 02:08:13;;;;;;;;;;;;;;;17.77;64.49;101206.16;5028860;28;1909;-42
2021/11/21 02:10:44;;;;;;;;;;;;;;;17.77;64.30;101211.50;5026412;28;1820;-43
2021/11/21 02:13:11;;;;;;;;;;;;;;;17.74;64.21;101191.16;5026178;28;1637;-43
2021/11/21 02:15:52;;;;;;;;;;;;;;;17.75;64.48;101211.59;5027219;28;1827;-43
2021/11/21 02:18:24;;;;;;;;;;;;;;;17.74;64.34;101193.84;5031630;28;1636;-43
2021/11/21 02:20:53;;;;;;;;;;;;;;;17.74;65.12;101187.63;5032504;28;1116;-43
2021/11/21 02:23:25;;;;;;;;;;;;;;;17.76;64.62;101199.06;5031552;28;1667;-42
2021/11/21 02:25:54;;;;;;;;;;;;;;;17.73;64.36;101200.16;5032370;28;2010;-43
2021/11/21 02:28:30;;;;;;;;;;;;;;;17.72;64.16;101193.09;5032137;28;1321;-42
2021/11/21 02:30:58;;;;;;;;;;;;;;;17.74;64.19;101201.84;5034404;28;1344;-42
2021/11/21 02:33:24;;;;;;;;;;;;;;;17.70;64.25;101208.41;5025979;28;1691;-42
2021/11/21 02:35:55;;;;;;;;;;;;;;;17.71;63.89;101204.78;5026716;28;1086;-42
2021/11/21 02:38:38;;;;;;;;;;;;;;;17.71;64.17;101207.47;5024592;28;1836;-42
2021/11/21 02:41:05;;;;;;;;;;;;;;;17.71;64.23;101210.13;5026623;28;1740;-42
2021/11/21 02:43:36;;;;;;;;;;;;;;;17.70;63.50;101201.22;5022595;28;1808;-42
2021/11/21 02:46:12;;;;;;;;;;;;;;;17.72;64.07;101202.97;5020093;28;1982;-43
2021/11/21 02:48:39;;;;;;;;;;;;;;;17.69;64.13;101191.53;5033885;28;1470;-42
2021/11/21 02:51:19;;;;;;;;;;;;;;;17.69;63.91;101204.91;5036419;28;1728;-42
2021/11/21 02:53:49;;;;;;;;;;;;;;;17.68;63.91;101196.97;5034204;28;1760;-42
2021/11/21 02:56:17;;;;;;;;;;;;;;;17.69;64.00;101190.69;5027267;28;1930;-42
2021/11/21 02:58:47;;;;;;;;;;;;;;;17.68;63.91;101191.63;5034366;28;1764;-42
2021/11/21 03:01:15;;;;;;;;;;;;;;;17.69;63.62;101204.91;5126896;23;3730;-43
2021/11/21 03:03:41;;;;;;;;;;;;;;;17.69;63.57;101204.91;5024176;28;1489;-43
2021/11/21 03:06:08;;;;;;;;;;;;;;;17.66;63.93;101196.25;5023407;28;1981;-43
2021/11/21 03:08:34;;;;;;;;;;;;;;;17.70;63.72;101189.69;5025019;28;1915;-43
2021/11/21 03:11:19;;;;;;;;;;;;;;;17.68;63.52;101196.97;5023360;28;2059;-43
2021/11/21 03:13:47;;;;;;;;;;;;;;;17.70;63.52;101187.00;5028559;28;1955;-43
2021/11/21 03:16:13;;;;;;;;;;;;;;;17.66;63.65;101188.22;5025291;28;1712;-43
2021/11/21 03:18:44;;;;;;;;;;;;;;;17.67;63.99;101193.47;5014190;28;1929;-43
2021/11/21 03:21:14;;;;;;;;;;;;;;;17.66;63.38;101196.25;5024362;28;1066;-43
2021/11/21 03:23:41;;;;;;;;;;;;;;;17.66;63.94;101196.25;5019801;28;1879;-42
2021/11/21 03:26:19;;;;;;;;;;;;;;;17.65;63.95;101192.72;5023306;28;2160;-42
2021/11/21 03:28:49;;;;;;;;;;;;;;;17.65;63.33;101171.31;5021771;28;1584;-42
2021/11/21 03:31:19;;;;;;;;;;;;;;;17.66;63.64;101174.84;5024137;28;1738;-42
2021/11/21 03:33:50;;;;;;;;;;;;;;;17.62;63.32;101165.34;5029941;28;1622;-43
2021/11/21 03:36:17;;;;;;;;;;;;;;;17.64;63.71;101166.09;5021278;28;1070;-42
2021/11/21 03:38:50;;;;;;;;;;;;;;;17.62;63.29;101165.34;5028137;28;1922;-43
2021/11/21 03:41:18;;;;;;;;;;;;;;;17.62;63.74;101165.34;5029235;28;1957;-46
2021/11/21 03:43:45;;;;;;;;;;;;;;;17.62;63.76;101163.53;5020755;28;1748;-43
2021/11/21 03:46:13;;;;;;;;;;;;;;;17.64;64.25;101160.75;5013594;28;1898;-43
2021/11/21 03:48:40;;;;;;;;;;;;;;;17.61;64.03;101161.84;5021161;28;1760;-43
2021/11/21 03:51:12;;;;;;;;;;;;;;;17.62;63.84;101162.69;5033773;28;1082;-42
2021/11/21 03:53:39;;;;;;;;;;;;;;;17.60;64.05;101160.13;5032689;28;1992;-43
2021/11/21 03:56:06;;;;;;;;;;;;;;;17.60;64.23;101151.25;5021357;28;1830;-43
2021/11/21 03:58:42;;;;;;;;;;;;;;;17.56;64.97;101158.66;5018011;28;1715;-44
2021/11/21 04:01:10;;;;;;;;;;;;;;;17.58;64.75;101167.41;5013438;28;1913;-43
2021/11/21 04:03:40;;;;;;;;;;;;;;;17.56;64.41;101152.44;5025742;28;1789;-43
2021/11/21 04:06:07;;;;;;;;;;;;;;;17.53;64.80;101152.66;5013682;28;1906;-43
2021/11/21 04:08:38;;;;;;;;;;;;;;;17.52;64.91;101149.16;5026440;28;1681;-44
2021/11/21 04:11:06;;;;;;;;;;;;;;;17.51;65.09;101168.84;5031538;28;1719;-42
2021/11/21 04:13:36;;;;;;;;;;;;;;;17.52;65.15;101161.69;5021969;28;1723;-43
2021/11/21 04:16:06;;;;;;;;;;;;;;;17.53;65.44;101163.38;5025096;28;1758;-43
2021/11/21 04:18:36;;;;;;;;;;;;;;;17.49;65.27;101166.28;5013497;28;1754;-43
2021/11/21 04:21:03;;;;;;;;;;;;;;;17.46;65.56;101166.50;5013632;28;1019;-44
2021/11/21 04:23:31;;;;;;;;;;;;;;;17.50;65.41;101154.59;5024913;28;1576;-42
2021/11/21 04:26:01;;;;;;;;;;;;;;;17.49;65.56;101150.25;5021736;28;1989;-43
2021/11/21 04:28:32;;;;;;;;;;;;;;;17.46;65.75;101154.97;5023951;28;1660;-43
2021/11/21 04:30:59;;;;;;;;;;;;;;;17.45;65.65;101154.13;5020230;28;2153;-44
2021/11/21 04:33:33;;;;;;;;;;;;;;;17.46;65.54;101155.81;5013625;28;1898;-43
2021/11/21 04:36:00;;;;;;;;;;;;;;;17.44;65.89;101160.44;5031953;28;1073;-42
2021/11/21 04:38:30;;;;;;;;;;;;;;;17.44;65.94;101149.72;5024340;28;1235;-42
2021/11/21 04:41:04;;;;;;;;;;;;;;;17.42;65.98;101145.47;5026143;28;1815;-43
2021/11/21 04:43:32;;;;;;;;;;;;;;;17.40;65.84;101145.59;5015955;28;1736;-43
2021/11/21 04:45:59;;;;;;;;;;;;;;;17.39;65.65;101143.91;5019441;28;1967;-43
2021/11/21 04:48:33;;;;;;;;;;;;;;;17.39;66.14;101146.56;5012780;28;1760;-43
2021/11/21 04:51:01;;;;;;;;;;;;;;;17.40;66.23;101142.91;5032408;28;1076;-42
2021/11/21 04:53:28;;;;;;;;;;;;;;;17.41;66.12;101141.13;5022203;28;2003;-43
2021/11/21 04:55:56;;;;;;;;;;;;;;;17.39;66.32;101141.22;5014718;28;2196;-42
2021/11/21 04:58:24;;;;;;;;;;;;;;;17.37;66.29;101148.50;5028982;28;1993;-43
2021/11/21 05:00:51;;;;;;;;;;;;;;;17.40;66.37;101153.59;5030890;28;1943;-42
2021/11/21 05:03:19;;;;;;;;;;;;;;;17.38;66.32;101134.16;5013296;28;1903;-43
2021/11/21 05:05:53;;;;;;;;;;;;;;;17.38;66.55;101157.38;5029263;28;1267;-43
2021/11/21 05:08:43;;;;;;;;;;;;;;;17.40;66.63;101156.28;5023764;28;1967;-43
2021/11/21 05:11:19;;;;;;;;;;;;;;;17.35;66.58;101147.78;5026131;28;1477;-43
2021/11/21 05:13:47;;;;;;;;;;;;;;;17.37;66.43;101155.66;5024540;28;1686;-43
2021/11/21 05:16:14;;;;;;;;;;;;;;;17.38;66.47;101135.97;5020290;28;1467;-43
2021/11/21 05:18:42;;;;;;;;;;;;;;;17.35;66.42;101142.41;5029400;28;1328;-43
2021/11/21 05:21:12;;;;;;;;;;;;;;;17.33;66.86;101148.81;5012236;28;1071;-46
2021/11/21 05:23:39;;;;;;;;;;;;;;;17.34;66.52;101154.06;5012713;28;1650;-43
2021/11/21 05:28:48;;;;;;;;;;;;;;;17.34;66.74;101159.41;5021941;28;2496;-42
2021/11/21 05:31:17;;;;;;;;;;;;;;;17.32;66.75;101141.78;5021690;28;1524;-46
2021/11/21 05:33:43;;;;;;;;;;;;;;;17.32;66.79;101141.78;5030823;28;1997;-43
2021/11/21 05:36:15;;;;;;;;;;;;;;;17.30;66.76;101137.41;5032263;28;1071;-43
2021/11/21 05:41:31;;;;;;;;;;;;;;;17.28;66.76;101125.13;5030806;28;2301;-42
2021/11/21 05:44:01;;;;;;;;;;;;;;;17.28;66.72;101135.81;5030169;28;1605;-43
2021/11/21 05:46:31;;;;;;;;;;;;;;;17.32;66.94;101147.13;5031726;28;1923;-43
2021/11/21 05:48:58;;;;;;;;;;;;;;;17.32;66.84;101131.94;5031001;28;1906;-43
2021/11/21 05:51:41;;;;;;;;;;;;;;;17.32;66.82;101148.00;5017927;28;1275;-44
2021/11/21 05:54:16;;;;;;;;;;;;;;;17.31;66.69;101140.94;5034099;28;1907;-43
2021/11/21 05:56:43;;;;;;;;;;;;;;;17.30;66.80;101142.75;5034711;28;1971;-43
2021/11/21 05:59:11;;;;;;;;;;;;;;;17.30;66.66;101128.53;5020148;28;2194;-43
2021/11/21 06:01:38;;;;;;;;;;;;;;;17.32;66.59;101131.94;5021293;28;1476;-43
2021/11/21 06:04:06;;;;;;;;;;;;;;;17.36;66.64;101144.13;5034519;28;1960;-43
2021/11/21 06:06:33;;;;;;;;;;;;;;;17.39;66.23;101125.19;5035977;28;1910;-42
2021/11/21 06:09:02;;;;;;;;;;;;;;;17.42;66.73;101132.94;5029442;28;1856;-42
2021/11/21 06:14:11;;;;;;;;;;;;;;;17.80;66.03;101123.81;5022281;28;2279;-44
2021/11/21 06:16:39;;;;;;;;;;;;;;;17.94;65.82;101120.09;5030842;28;1721;-43
2021/11/21 06:19:07;;;;;;;;;;;;;;;18.06;66.04;101112.94;5032989;28;1985;-43
2021/11/21 06:21:34;;;;;;;;;;;;;;;18.15;65.16;101114.06;5035426;28;1249;-43
2021/11/21 06:24:02;;;;;;;;;;;;;;;18.17;66.10;101112.94;5033701;28;1701;-43
2021/11/21 06:26:35;;;;;;;;;;;;;;;18.26;65.62;101127.41;5022794;28;1451;-43
2021/11/21 06:29:02;;;;;;;;;;;;;;;18.29;65.04;101132.53;5029906;28;1780;-43
2021/11/21 06:31:30;;;;;;;;;;;;;;;18.29;65.73;101117.31;5029876;28;2094;-43
2021/11/21 06:34:05;;;;;;;;;;;;;;;18.35;65.86;101121.34;5024081;28;1673;-43
2021/11/21 06:36:36;;;;;;;;;;;;;;;18.38;65.42;101125.59;5031740;28;1721;-43
2021/11/21 06:39:05;;;;;;;;;;;;;;;18.39;65.61;101132.66;5032067;28;1617;-43
2021/11/21 06:41:38;;;;;;;;;;;;;;;18.40;65.80;101123.63;5026085;28;1934;-44
2021/11/21 06:44:10;;;;;;;;;;;;;;;18.51;65.10;101142.38;5015560;28;1771;-43
2021/11/21 06:46:39;;;;;;;;;;;;;;;18.61;65.22;101132.63;5025147;28;1906;-44
2021/11/21 06:49:09;;;;;;;;;;;;;;;18.64;65.17;101124.34;5033163;28;1889;-43
2021/11/21 06:51:41;;;;;;;;;;;;;;;18.65;66.54;101133.22;5034548;28;1668;-44
2021/11/21 06:54:10;;;;;;;;;;;;;;;18.62;65.60;101123.63;5032189;28;1956;-43
2021/11/21 06:56:40;;;;;;;;;;;;;;;18.65;65.52;101123.38;5023040;28;1571;-44
2021/11/21 07:01:49;;;;;;;;;;;;;;;18.73;65.89;101133.47;5022009;28;2269;-42
2021/11/21 07:04:15;;;;;;;;;;;;;;;18.73;66.67;101124.59;5023949;28;1806;-43
2021/11/21 07:06:46;;;;;;;;;;;;;;;18.76;65.94;101116.28;5014133;28;1086;-43
2021/11/21 07:09:14;;;;;;;;;;;;;;;18.78;66.06;101111.66;5030907;28;1541;-43
2021/11/21 07:11:48;;;;;;;;;;;;;;;18.88;66.20;101113.50;5032879;28;1586;-43
2021/11/21 07:14:15;;;;;;;;;;;;;;;18.95;65.22;101104.94;5028969;28;1574;-42
2021/11/21 07:16:44;;;;;;;;;;;;;;;18.95;64.94;101104.94;5033229;28;1576;-46
2021/11/21 07:19:11;;;;;;;;;;;;;;;19.01;65.75;101105.28;5022804;28;1656;-43
2021/11/21 07:21:45;;;;;;;;;;;;;;;18.98;65.47;101102.88;5032341;28;1656;-44
2021/11/21 07:24:14;;;;;;;;;;;;;;;19.08;65.29;101119.88;5031470;28;1852;-43
2021/11/21 07:26:43;;;;;;;;;;;;;;;19.26;65.13;101116.66;5025255;28;1429;-43
2021/11/21 07:29:12;;;;;;;;;;;;;;;19.30;64.43;101090.41;5025257;28;1973;-46
2021/11/21 07:31:40;;;;;;;;;;;;;;;19.31;65.56;101092.97;5030462;28;1733;-44
2021/11/21 07:36:48;;;;;;;;;;;;;;;19.35;64.35;101080.16;5033282;28;1584;-46
2021/11/21 07:39:18;;;;;;;;;;;;;;;19.37;65.49;101081.72;5031405;28;1424;-43
2021/11/21 07:41:46;;;;;;;;;;;;;;;19.52;65.28;101078.69;5037123;28;1681;-43
2021/11/21 07:44:16;;;;;;;;;;;;;;;19.47;64.81;101082.63;5034345;28;1733;-43
2021/11/21 07:46:45;;;;;;;;;;;;;;;19.50;64.25;101070.81;5024720;28;1531;-44
2021/11/21 07:49:12;;;;;;;;;;;;;;;19.50;64.37;101077.97;5023262;28;1999;-43
2021/11/21 07:51:44;;;;;;;;;;;;;;;19.43;64.52;101075.81;5033031;28;1588;-43
2021/11/21 07:54:13;;;;;;;;;;;;;;;19.43;64.66;101072.31;5023087;28;1902;-43
2021/11/21 07:56:42;;;;;;;;;;;;;;;19.45;65.82;101073.88;5040612;28;1839;-43
2021/11/21 07:59:11;;;;;;;;;;;;;;;19.39;65.38;101074.38;5030380;28;2037;-43
2021/11/21 08:01:39;;;;;;;;;;;;;;;19.48;65.84;101059.38;5030538;28;1564;-42
2021/11/21 08:04:10;;;;;;;;;;;;;;;19.51;64.91;101056.41;5031644;28;1781;-42
2021/11/21 08:06:38;;;;;;;;;;;;;;;19.59;65.68;101071.84;5024292;28;1992;-42
2021/11/21 08:09:13;;;;;;;;;;;;;;;19.53;65.63;101058.97;5031481;28;1906;-43
2021/11/21 08:11:42;;;;;;;;;;;;;;;19.54;64.69;101071.41;5025788;28;1788;-42
2021/11/21 08:14:18;;;;;;;;;;;;;;;19.61;65.28;101056.47;5027972;28;2019;-43
2021/11/21 08:16:47;;;;;;;;;;;;;;;19.61;65.29;101056.47;5019170;28;1471;-43
2021/11/21 08:19:14;;;;;;;;;;;;;;;19.65;64.39;101060.56;5030813;28;1614;-43
2021/11/21 08:21:41;;;;;;;;;;;;;;;19.58;64.94;101051.38;5048935;28;1706;-43
2021/11/21 08:24:09;;;;;;;;;;;;;;;19.60;64.43;101049.41;5033435;28;1953;-43
2021/11/21 08:26:36;;;;;;;;;;;;;;;19.44;65.98;101040.00;5026487;28;1691;-43
2021/11/21 08:31:50;;;;;;;;;;;;;;;18.99;66.98;101029.50;5029823;28;2421;-43
2021/11/21 08:34:17;;;;;;;;;;;;;;;18.96;66.93;101045.88;5036274;28;1657;-45
2021/11/21 08:36:44;;;;;;;;;;;;;;;18.90;67.37;101032.09;5041211;28;1691;-44
2021/11/21 08:39:16;;;;;;;;;;;;;;;18.83;67.18;101013.88;5029294;28;1992;-43
2021/11/21 08:41:43;;;;;;;;;;;;;;;18.85;66.90;101021.78;5038247;28;1755;-42
2021/11/21 08:44:09;;;;;;;;;;;;;;;18.79;67.75;101009.75;5025424;28;1699;-44
2021/11/21 08:46:39;;;;;;;;;;;;;;;18.71;68.03;101019.38;5027419;28;1530;-45
2021/11/21 08:49:10;;;;;;;;;;;;;;;18.72;67.25;101000.50;5032402;28;1972;-44
2021/11/21 08:51:36;;;;;;;;;;;;;;;18.72;67.21;101005.00;5040175;28;1472;-44
2021/11/21 08:54:04;;;;;;;;;;;;;;;18.67;68.24;101016.94;5032238;28;1364;-45
2021/11/21 08:56:31;;;;;;;;;;;;;;;18.60;68.26;101013.09;5029564;28;1397;-43
2021/11/21 08:59:01;;;;;;;;;;;;;;;18.61;67.35;101008.56;5022256;28;2154;-43
2021/11/21 09:04:24;;;;;;;;;;;;;;;18.65;67.38;101000.16;5025283;28;2485;-44
2021/11/21 09:06:54;;;;;;;;;;;;;;;18.60;68.16;100980.06;5021424;28;1613;-44
2021/11/21 09:12:01;;;;;;;;;;;;;;;18.68;67.24;100982.97;5027212;28;2524;-48
2021/11/21 09:14:30;;;;;;;;;;;;;;;18.69;67.67;100985.50;5043955;28;2099;-49
2021/11/21 09:16:56;;;;;;;;;;;;;;;18.63;67.79;100972.63;5027982;28;1534;-49
2021/11/21 09:19:38;;;;;;;;;;;;;;;18.57;66.88;100959.75;5032370;28;1657;-49
2021/11/21 09:22:11;;;;;;;;;;;;;;;18.64;67.04;100957.41;5027544;28;1380;-49
2021/11/21 09:24:40;;;;;;;;;;;;;;;18.58;67.19;100942.72;5031861;28;1507;-49
2021/11/21 09:27:13;;;;;;;;;;;;;;;18.65;67.59;100949.25;5036311;28;1678;-49
2021/11/21 09:29:46;;;;;;;;;;;;;;;18.62;67.69;100936.13;5034171;28;1985;-49
2021/11/21 09:32:13;;;;;;;;;;;;;;;18.60;67.83;100935.41;5041062;28;1542;-49
2021/11/21 09:34:40;;;;;;;;;;;;;;;18.62;67.84;100920.06;5040933;28;1457;-49
2021/11/21 09:37:08;;;;;;;;;;;;;;;18.61;67.67;100921.03;5043338;28;2238;-49
2021/11/21 09:39:36;;;;;;;;;;;;;;;18.57;67.85;100906.19;5032573;28;1818;-50
2021/11/21 09:42:03;;;;;;;;;;;;;;;18.66;66.82;100921.50;5038051;28;1470;-48
2021/11/21 09:44:30;;;;;;;;;;;;;;;18.68;67.20;100898.13;5024206;28;1525;-49
2021/11/21 09:47:10;;;;;;;;;;;;;;;18.69;67.46;100904.31;5025166;28;1816;-49
2021/11/21 09:49:37;;;;;;;;;;;;;;;18.68;67.27;100903.47;5025842;28;2016;-48
2021/11/21 09:52:04;;;;;;;;;;;;;;;18.68;66.52;100884.72;5034509;28;2021;-49
2021/11/21 09:54:32;;;;;;;;;;;;;;;18.74;67.83;100895.88;5022450;28;1563;-47
2021/11/21 09:56:58;;;;;;;;;;;;;;;18.74;66.87;100869.09;5027009;28;1854;-47
2021/11/21 09:59:43;;;;;;;;;;;;;;;18.88;66.87;100876.84;5037209;28;1807;-46
2021/11/21 10:02:16;;;;;;;;;;;;;;;18.89;68.40;100878.53;5034262;28;1668;-46
2021/11/21 10:04:43;;;;;;;;;;;;;;;19.04;66.93;100871.84;5034742;28;2345;-46
2021/11/21 10:07:19;;;;;;;;;;;;;;;18.96;66.97;100877.03;5039920;28;1754;-48
2021/11/21 10:09:47;;;;;;;;;;;;;;;18.92;68.09;100880.97;5025895;28;1913;-46
2021/11/21 10:12:14;;;;;;;;;;;;;;;18.94;68.23;100854.00;5021582;28;1872;-47
2021/11/21 10:14:53;;;;;;;;;;;;;;;19.01;67.87;100850.66;5026020;28;1903;-46
2021/11/21 10:17:20;;;;;;;;;;;;;;;18.94;67.85;100848.66;5036776;28;1931;-48
2021/11/21 10:20:01;;;;;;;;;;;;;;;18.95;67.03;100839.63;5035592;28;1452;-47
2021/11/21 10:22:45;;;;;;;;;;;;;;;18.91;68.27;100840.88;5030561;28;1665;-47
2021/11/21 10:25:13;;;;;;;;;;;;;;;18.90;67.75;100837.38;5031521;28;1553;-46
2021/11/21 10:27:41;;;;;;;;;;;;;;;19.01;67.46;100829.22;5029718;28;1545;-48
2021/11/21 10:30:09;;;;;;;;;;;;;;;19.07;68.47;100844.75;5028658;28;1973;-48
2021/11/21 10:32:36;;;;;;;;;;;;;;;18.97;68.31;100818.91;5032289;28;1671;-49
2021/11/21 10:35:03;;;;;;;;;;;;;;;18.96;68.21;100819.88;5030399;28;1458;-50
2021/11/21 10:37:31;;;;;;;;;;;;;;;18.90;69.32;100823.97;5025341;28;1692;-49
2021/11/21 10:40:00;;;;;;;;;;;;;;;18.86;67.66;100817.16;5030038;28;1869;-49
2021/11/21 10:42:28;;;;;;;;;;;;;;;18.81;67.04;100819.41;5037646;28;1591;-48
2021/11/21 10:44:58;;;;;;;;;;;;;;;18.77;66.70;100799.19;5040731;28;1474;-48
2021/11/21 10:47:25;;;;;;;;;;;;;;;18.72;66.97;100804.94;5027812;28;1458;-49
2021/11/21 10:49:53;;;;;;;;;;;;;;;18.63;67.43;100798.53;5029846;28;1975;-50
2021/11/21 10:52:22;;;;;;;;;;;;;;;18.63;66.34;100797.69;5029921;28;1944;-49
2021/11/21 10:54:50;;;;;;;;;;;;;;;18.60;66.25;100804.19;5025863;28;1610;-49
2021/11/21 10:57:29;;;;;;;;;;;;;;;18.53;65.67;100788.75;5034167;28;1733;-49
2021/11/21 10:59:59;;;;;;;;;;;;;;;18.43;64.23;100791.38;5023542;28;1743;-49
2021/11/21 11:02:35;;;;;;;;;;;;;;;18.37;63.49;100784.72;5034491;28;1545;-49
2021/11/21 11:05:14;;;;;;;;;;;;;;;18.50;62.65;100781.81;5040520;28;1483;-48
2021/11/21 11:07:42;;;;;;;;;;;;;;;18.46;62.41;100783.06;5024768;28;1558;-48
2021/11/21 11:10:11;;;;;;;;;;;;;;;18.39;63.20;100773.88;5032382;28;1909;-49
2021/11/21 11:12:39;;;;;;;;;;;;;;;18.35;63.36;100761.75;5035886;28;1700;-48
2021/11/21 11:15:07;;;;;;;;;;;;;;;18.32;63.02;100761.97;5021365;28;1646;-48
2021/11/21 11:17:34;;;;;;;;;;;;;;;18.31;63.36;100754.94;5029544;28;1424;-49
2021/11/21 11:20:02;;;;;;;;;;;;;;;18.29;61.11;100739.84;5026092;28;1971;-48
2021/11/21 11:22:29;;;;;;;;;;;;;;;18.43;60.99;100743.19;5032469;28;1460;-48
2021/11/21 11:25:02;;;;;;;;;;;;;;;18.42;59.64;100737.00;5029961;28;1802;-49
2021/11/21 11:27:53;;;;;;;;;;;;;;;18.41;60.47;100743.31;5031184;28;2050;-48
2021/11/21 11:30:28;;;;;;;;;;;;;;;18.35;61.80;100746.50;5023298;28;2346;-48
2021/11/21 11:33:04;;;;;;;;;;;;;;;18.34;61.43;100744.81;5025524;28;1547;-48
2021/11/21 11:35:32;;;;;;;;;;;;;;;18.37;60.86;100719.63;5031789;28;1503;-48
2021/11/21 11:37:59;;;;;;;;;;;;;;;18.40;61.05;100720.22;5027943;28;1471;-48
2021/11/21 11:40:40;;;;;;;;;;;;;;;18.41;60.99;100713.84;5035566;28;1864;-48
2021/11/21 11:43:23;;;;;;;;;;;;;;;18.41;61.70;100724.56;5028039;28;2059;-49
2021/11/21 11:45:52;;;;;;;;;;;;;;;18.40;62.38;100709.50;5017509;28;1456;-48
2021/11/21 11:48:32;;;;;;;;;;;;;;;18.43;61.71;100714.56;5025087;28;1906;-48
2021/11/21 11:50:59;;;;;;;;;;;;;;;18.43;61.89;100700.34;5031990;28;1383;-48
2021/11/21 11:53:32;;;;;;;;;;;;;;;18.42;62.53;100704.00;5028991;28;1736;-48
2021/11/21 11:56:16;;;;;;;;;;;;;;;18.46;62.98;100694.69;5028921;28;1432;-49
2021/11/21 11:58:48;;;;;;;;;;;;;;;18.43;62.88;100701.19;5033636;28;1704;-48
2021/11/21 12:01:37;;;;;;;;;;;;;;;18.45;62.53;100709.09;5030701;28;1702;-48
2021/11/21 12:04:04;;;;;;;;;;;;;;;18.47;62.55;100715.16;5029969;28;2353;-49
2021/11/21 12:06:36;;;;;;;;;;;;;;;18.46;63.52;100700.94;5041957;28;1798;-49
2021/11/21 12:09:19;;;;;;;;;;;;;;;18.47;63.42;100707.97;5041040;28;1906;-48
2021/11/21 12:12:00;;;;;;;;;;;;;;;18.46;63.77;100687.53;5041794;28;1549;-49
2021/11/21 12:14:27;;;;;;;;;;;;;;;18.44;63.31;100686.81;5037697;28;1792;-49
2021/11/21 12:17:04;;;;;;;;;;;;;;;18.48;64.08;100692.75;5045401;28;1920;-49
2021/11/21 12:19:44;;;;;;;;;;;;;;;18.49;63.60;100683.75;5046187;28;1657;-49
2021/11/21 12:25:15;;;;;;;;;;;;;;;18.54;64.30;100681.50;5027657;28;1717;-49
2021/11/21 12:27:46;;;;;;;;;;;;;;;18.53;64.81;100678.97;5027616;28;1362;-49
2021/11/21 12:30:13;;;;;;;;;;;;;;;18.42;64.40;100682.56;5027481;28;1906;-49
2021/11/21 12:32:49;;;;;;;;;;;;;;;18.35;65.18;100668.03;5035586;28;1732;-49
2021/11/21 12:35:23;;;;;;;;;;;;;;;18.32;64.63;100670.97;5031720;28;1758;-49
2021/11/21 12:38:04;;;;;;;;;;;;;;;18.39;64.41;100670.31;5039861;28;1695;-49
2021/11/21 12:40:35;;;;;;;;;;;;;;;18.28;64.54;100649.84;5027665;28;1770;-50
2021/11/21 12:43:06;;;;;;;;;;;;;;;18.25;64.73;100651.94;5039569;28;1591;-48
2021/11/21 12:45:42;;;;;;;;;;;;;;;18.23;65.10;100646.69;5043814;28;1934;-48
2021/11/21 12:48:13;;;;;;;;;;;;;;;18.25;64.62;100650.09;5021700;28;1775;-49
2021/11/21 12:50:43;;;;;;;;;;;;;;;18.19;64.81;100621.19;5038634;28;1906;-49
2021/11/21 12:53:13;;;;;;;;;;;;;;;18.20;64.95;100646.94;5029990;28;1514;-48
2021/11/21 12:55:42;;;;;;;;;;;;;;;18.20;65.10;100636.25;5042760;28;1457;-48
2021/11/21 12:58:16;;;;;;;;;;;;;;;18.23;65.00;100636.00;5027186;28;1714;-48
2021/11/21 13:00:43;;;;;;;;;;;;;;;18.19;65.05;100631.88;5032757;28;1937;-49
2021/11/21 13:03:14;;;;;;;;;;;;;;;18.19;65.80;100631.06;5027198;28;1531;-48
2021/11/21 13:08:47;;;;;;;;;;;;;;;18.17;65.67;100636.53;5027844;28;1910;-48
2021/11/21 13:11:42;;;;;;;;;;;;;;;18.19;65.25;100641.75;5038820;28;1705;-48
2021/11/21 13:14:10;;;;;;;;;;;;;;;18.13;64.96;100628.91;5007057;28;1720;-48
2021/11/21 13:16:40;;;;;;;;;;;;;;;18.11;65.43;100621.00;5040313;28;1595;-48
2021/11/21 13:19:12;;;;;;;;;;;;;;;18.16;65.38;100644.69;5026959;28;1933;-48
2021/11/21 13:21:42;;;;;;;;;;;;;;;18.13;65.00;100642.28;5046049;28;1533;-48
2021/11/21 13:24:12;;;;;;;;;;;;;;;18.12;65.10;100625.38;5027166;28;1607;-49
2021/11/21 13:26:48;;;;;;;;;;;;;;;18.11;65.69;100637.06;5038282;28;1533;-49
2021/11/21 13:31:57;;;;;;;;;;;;;;;18.08;65.02;100611.44;5035088;28;2494;-48
2021/11/21 13:34:29;;;;;;;;;;;;;;;18.05;64.88;100621.53;5039962;28;2116;-49